sensor_id;sensor_type;location;lat;lon;timestamp;pressure;altitude;pressure_sealevel;temperature;humidity
35694;BME280;21812;55.536;37.664;2024-02-16T00:01:01;101452.06;;;-0.73;47.51
35694;BME280;21812;55.536;37.664;2024-02-16T00:03:28;101440.91;;;0.09;51.10
35694;BME280;21812;55.536;37.664;2024-02-16T00:05:54;101441.84;;;0.57;50.56
35694;BME280;21812;55.536;37.664;2024-02-16T00:08:20;101443.22;;;0.96;46.63
35694;BME280;21812;55.536;37.664;2024-02-16T00:10:49;101433.88;;;1.06;51.21
35694;BME280;21812;55.536;37.664;2024-02-16T00:13:14;101441.50;;;1.27;44.87
35694;BME280;21812;55.536;37.664;2024-02-16T00:15:40;101430.16;;;0.94;48.13
35694;BME280;21812;55.536;37.664;2024-02-16T00:18:06;101437.97;;;0.48;46.45
35694;BME280;21812;55.536;37.664;2024-02-16T00:20:32;101440.16;;;0.72;51.82
35694;BME280;21812;55.536;37.664;2024-02-16T00:22:58;101431.88;;;0.95;50.94
35694;BME280;21812;55.536;37.664;2024-02-16T00:25:23;101435.84;;;0.87;45.55
35694;BME280;21812;55.536;37.664;2024-02-16T00:27:49;101430.47;;;1.04;47.33
35694;BME280;21812;55.536;37.664;2024-02-16T00:30:18;101423.47;;;0.89;44.64
35694;BME280;21812;55.536;37.664;2024-02-16T00:32:44;101405.88;;;1.05;46.31
35694;BME280;21812;55.536;37.664;2024-02-16T00:35:11;101415.25;;;1.55;48.59
35694;BME280;21812;55.536;37.664;2024-02-16T00:37:37;101414.72;;;1.65;50.81
35694;BME280;21812;55.536;37.664;2024-02-16T00:40:04;101410.72;;;1.43;48.27
35694;BME280;21812;55.536;37.664;2024-02-16T00:42:31;101418.53;;;0.98;44.12
35694;BME280;21812;55.536;37.664;2024-02-16T00:44:57;101409.94;;;0.31;48.38
35694;BME280;21812;55.536;37.664;2024-02-16T00:47:26;101407.63;;;0.74;48.77
35694;BME280;21812;55.536;37.664;2024-02-16T00:49:53;101394.97;;;1.86;46.58
35694;BME280;21812;55.536;37.664;2024-02-16T00:52:18;101381.53;;;2.76;46.45
35694;BME280;21812;55.536;37.664;2024-02-16T00:54:44;101378.69;;;2.79;45.94
35694;BME280;21812;55.536;37.664;2024-02-16T00:57:10;101384.56;;;2.69;47.11
35694;BME280;21812;55.536;37.664;2024-02-16T00:59:36;101372.78;;;1.90;40.38
35694;BME280;21812;55.536;37.664;2024-02-16T01:02:01;101396.56;;;1.00;41.63
35694;BME280;21812;55.536;37.664;2024-02-16T01:04:27;101403.03;;;0.62;44.66
35694;BME280;21812;55.536;37.664;2024-02-16T01:06:52;101396.41;;;0.39;46.77
35694;BME280;21812;55.536;37.664;2024-02-16T01:09:18;101400.13;;;0.83;48.76
35694;BME280;21812;55.536;37.664;2024-02-16T01:11:44;101388.59;;;1.01;44.01
35694;BME280;21812;55.536;37.664;2024-02-16T01:14:09;101384.78;;;0.43;44.80
35694;BME280;21812;55.536;37.664;2024-02-16T01:16:35;101408.56;;;0.08;43.84
35694;BME280;21812;55.536;37.664;2024-02-16T01:19:01;101407.84;;;-0.46;45.23
35694;BME280;21812;55.536;37.664;2024-02-16T01:21:27;101400.34;;;-0.36;54.12
35694;BME280;21812;55.536;37.664;2024-02-16T01:23:52;101398.19;;;-0.63;45.02
35694;BME280;21812;55.536;37.664;2024-02-16T01:26:18;101412.56;;;-0.53;49.27
35694;BME280;21812;55.536;37.664;2024-02-16T01:28:44;101411.25;;;0.07;46.09
35694;BME280;21812;55.536;37.664;2024-02-16T01:31:10;101406.22;;;0.35;47.38
35694;BME280;21812;55.536;37.664;2024-02-16T01:33:36;101407.06;;;0.84;45.81
35694;BME280;21812;55.536;37.664;2024-02-16T01:36:03;101406.91;;;0.87;44.91
35694;BME280;21812;55.536;37.664;2024-02-16T01:38:28;101394.72;;;0.86;44.36
35694;BME280;21812;55.536;37.664;2024-02-16T01:40:54;101402.19;;;0.62;42.52
35694;BME280;21812;55.536;37.664;2024-02-16T01:43:20;101405.16;;;0.71;43.90
35694;BME280;21812;55.536;37.664;2024-02-16T01:45:46;101405.97;;;0.72;45.36
35694;BME280;21812;55.536;37.664;2024-02-16T01:48:15;101409.28;;;0.91;44.69
35694;BME280;21812;55.536;37.664;2024-02-16T01:50:44;101405.38;;;1.14;42.04
35694;BME280;21812;55.536;37.664;2024-02-16T01:53:15;101367.75;;;0.34;41.90
35694;BME280;21812;55.536;37.664;2024-02-16T01:55:47;101403.22;;;-0.41;44.17
35694;BME280;21812;55.536;37.664;2024-02-16T01:58:12;101372.06;;;-0.65;45.21
35694;BME280;21812;55.536;37.664;2024-02-16T02:00:39;101407.09;;;-0.66;43.01
35694;BME280;21812;55.536;37.664;2024-02-16T02:03:06;101408.94;;;-1.22;45.88
35694;BME280;21812;55.536;37.664;2024-02-16T02:05:32;101404.06;;;-0.93;49.66
35694;BME280;21812;55.536;37.664;2024-02-16T02:07:58;101423.28;;;-0.23;45.40
35694;BME280;21812;55.536;37.664;2024-02-16T02:10:24;101394.19;;;-0.53;49.41
35694;BME280;21812;55.536;37.664;2024-02-16T02:12:50;101402.03;;;-0.18;45.67
35694;BME280;21812;55.536;37.664;2024-02-16T02:15:15;101406.94;;;-0.45;43.98
35694;BME280;21812;55.536;37.664;2024-02-16T02:17:41;101401.19;;;-0.88;47.01
35694;BME280;21812;55.536;37.664;2024-02-16T02:20:07;101385.59;;;-0.22;45.81
35694;BME280;21812;55.536;37.664;2024-02-16T02:22:37;101357.19;;;0.03;47.22
35694;BME280;21812;55.536;37.664;2024-02-16T02:25:03;101403.25;;;-0.08;43.25
35694;BME280;21812;55.536;37.664;2024-02-16T02:27:30;101404.25;;;-0.10;49.29
35694;BME280;21812;55.536;37.664;2024-02-16T02:29:56;101394.41;;;-0.57;43.71
35694;BME280;21812;55.536;37.664;2024-02-16T02:32:21;101406.69;;;-0.75;45.94
35694;BME280;21812;55.536;37.664;2024-02-16T02:34:47;101401.56;;;-0.96;45.67
35694;BME280;21812;55.536;37.664;2024-02-16T02:37:13;101407.78;;;-0.62;47.42
35694;BME280;21812;55.536;37.664;2024-02-16T02:39:38;101412.22;;;-0.12;51.09
35694;BME280;21812;55.536;37.664;2024-02-16T02:42:04;101398.09;;;0.88;49.69
35694;BME280;21812;55.536;37.664;2024-02-16T02:44:29;101393.44;;;1.53;43.39
35694;BME280;21812;55.536;37.664;2024-02-16T02:46:56;101391.88;;;1.35;42.93
35694;BME280;21812;55.536;37.664;2024-02-16T02:49:22;101392.09;;;1.91;45.95
35694;BME280;21812;55.536;37.664;2024-02-16T02:51:47;101386.63;;;1.80;44.20
35694;BME280;21812;55.536;37.664;2024-02-16T02:54:13;101390.19;;;1.34;43.64
35694;BME280;21812;55.536;37.664;2024-02-16T02:56:39;101358.25;;;1.40;44.29
35694;BME280;21812;55.536;37.664;2024-02-16T02:59:04;101396.13;;;1.38;42.89
35694;BME280;21812;55.536;37.664;2024-02-16T03:01:31;101397.25;;;1.33;48.50
35694;BME280;21812;55.536;37.664;2024-02-16T03:03:57;101405.47;;;1.43;41.99
35694;BME280;21812;55.536;37.664;2024-02-16T03:06:25;101396.22;;;0.90;42.42
35694;BME280;21812;55.536;37.664;2024-02-16T03:08:50;101406.91;;;0.55;44.46
35694;BME280;21812;55.536;37.664;2024-02-16T03:11:16;101393.00;;;0.37;45.19
35694;BME280;21812;55.536;37.664;2024-02-16T03:13:42;101389.09;;;0.28;42.88
35694;BME280;21812;55.536;37.664;2024-02-16T03:16:08;101396.81;;;0.31;47.17
35694;BME280;21812;55.536;37.664;2024-02-16T03:18:33;101411.00;;;-0.22;42.95
35694;BME280;21812;55.536;37.664;2024-02-16T03:21:02;101414.09;;;-0.31;46.82
35694;BME280;21812;55.536;37.664;2024-02-16T03:23:28;101402.25;;;0.44;47.24
35694;BME280;21812;55.536;37.664;2024-02-16T03:25:53;101403.09;;;0.29;42.46
35694;BME280;21812;55.536;37.664;2024-02-16T03:28:20;101408.91;;;0.18;44.02
35694;BME280;21812;55.536;37.664;2024-02-16T03:30:46;101406.22;;;0.51;45.10
35694;BME280;21812;55.536;37.664;2024-02-16T03:33:12;101415.59;;;-0.10;43.74
35694;BME280;21812;55.536;37.664;2024-02-16T03:35:39;101416.03;;;0.16;43.79
35694;BME280;21812;55.536;37.664;2024-02-16T03:38:06;101416.34;;;-0.41;42.21
35694;BME280;21812;55.536;37.664;2024-02-16T03:40:31;101418.81;;;-1.85;44.25
35694;BME280;21812;55.536;37.664;2024-02-16T03:42:58;101423.72;;;-3.01;47.09
35694;BME280;21812;55.536;37.664;2024-02-16T03:45:23;101431.81;;;-3.76;49.22
35694;BME280;21812;55.536;37.664;2024-02-16T03:47:50;101435.84;;;-4.41;50.90
35694;BME280;21812;55.536;37.664;2024-02-16T03:50:18;101433.81;;;-4.85;52.20
35694;BME280;21812;55.536;37.664;2024-02-16T03:52:44;101432.78;;;-5.07;53.34
35694;BME280;21812;55.536;37.664;2024-02-16T03:55:09;101440.16;;;-5.22;53.39
35694;BME280;21812;55.536;37.664;2024-02-16T03:57:35;101466.66;;;-5.37;54.17
35694;BME280;21812;55.536;37.664;2024-02-16T04:00:01;101445.63;;;-5.59;54.93
35694;BME280;21812;55.536;37.664;2024-02-16T04:02:39;101455.66;;;-5.47;55.51
35694;BME280;21812;55.536;37.664;2024-02-16T04:05:04;101452.53;;;-5.58;55.40
35694;BME280;21812;55.536;37.664;2024-02-16T04:07:30;101454.50;;;-5.66;55.89
35694;BME280;21812;55.536;37.664;2024-02-16T04:09:56;101450.59;;;-5.81;56.36
35694;BME280;21812;55.536;37.664;2024-02-16T04:12:21;101441.13;;;-5.84;56.58
35694;BME280;21812;55.536;37.664;2024-02-16T04:14:47;101450.63;;;-5.83;56.97
35694;BME280;21812;55.536;37.664;2024-02-16T04:17:12;101436.28;;;-5.96;56.58
35694;BME280;21812;55.536;37.664;2024-02-16T04:19:38;101435.50;;;-6.00;57.28
35694;BME280;21812;55.536;37.664;2024-02-16T04:22:04;101428.81;;;-6.08;57.59
35694;BME280;21812;55.536;37.664;2024-02-16T04:24:29;101425.69;;;-6.21;58.19
35694;BME280;21812;55.536;37.664;2024-02-16T04:26:55;101434.31;;;-6.19;59.07
35694;BME280;21812;55.536;37.664;2024-02-16T04:29:21;101437.72;;;-6.17;58.80
35694;BME280;21812;55.536;37.664;2024-02-16T04:31:46;101443.00;;;-6.20;58.33
35694;BME280;21812;55.536;37.664;2024-02-16T04:34:13;101438.06;;;-6.30;58.39
35694;BME280;21812;55.536;37.664;2024-02-16T04:36:39;101425.31;;;-6.40;58.77
35694;BME280;21812;55.536;37.664;2024-02-16T04:39:05;101426.50;;;-6.52;59.68
35694;BME280;21812;55.536;37.664;2024-02-16T04:41:30;101435.19;;;-6.53;59.56
35694;BME280;21812;55.536;37.664;2024-02-16T04:43:56;101417.34;;;-6.67;59.88
35694;BME280;21812;55.536;37.664;2024-02-16T04:46:21;101434.47;;;-6.58;60.25
35694;BME280;21812;55.536;37.664;2024-02-16T04:48:47;101416.34;;;-6.61;60.18
35694;BME280;21812;55.536;37.664;2024-02-16T04:51:13;101419.00;;;-6.64;60.23
35694;BME280;21812;55.536;37.664;2024-02-16T04:53:39;101417.50;;;-6.73;60.00
35694;BME280;21812;55.536;37.664;2024-02-16T04:56:05;101422.75;;;-6.76;60.43
35694;BME280;21812;55.536;37.664;2024-02-16T04:58:31;101439.84;;;-6.66;60.75
35694;BME280;21812;55.536;37.664;2024-02-16T05:00:57;101440.66;;;-6.64;60.60
35694;BME280;21812;55.536;37.664;2024-02-16T05:03:23;101450.28;;;-6.68;60.68
35694;BME280;21812;55.536;37.664;2024-02-16T05:05:48;101442.47;;;-6.68;60.96
35694;BME280;21812;55.536;37.664;2024-02-16T05:08:14;101438.97;;;-6.66;60.77
35694;BME280;21812;55.536;37.664;2024-02-16T05:10:40;101448.53;;;-6.67;60.46
35694;BME280;21812;55.536;37.664;2024-02-16T05:13:05;101438.31;;;-6.75;60.71
35694;BME280;21812;55.536;37.664;2024-02-16T05:15:31;101430.59;;;-6.78;60.83
35694;BME280;21812;55.536;37.664;2024-02-16T05:17:57;101442.53;;;-6.71;60.96
35694;BME280;21812;55.536;37.664;2024-02-16T05:20:23;101435.66;;;-6.72;60.89
35694;BME280;21812;55.536;37.664;2024-02-16T05:22:49;101440.03;;;-6.74;61.20
35694;BME280;21812;55.536;37.664;2024-02-16T05:25:18;101439.06;;;-6.70;61.15
35694;BME280;21812;55.536;37.664;2024-02-16T05:27:45;101423.69;;;-6.79;60.94
35694;BME280;21812;55.536;37.664;2024-02-16T05:30:12;101419.38;;;-6.80;61.25
35694;BME280;21812;55.536;37.664;2024-02-16T05:32:41;101426.28;;;-6.77;61.32
35694;BME280;21812;55.536;37.664;2024-02-16T05:35:08;101410.13;;;-6.90;61.40
35694;BME280;21812;55.536;37.664;2024-02-16T05:37:38;101427.25;;;-6.81;62.08
35694;BME280;21812;55.536;37.664;2024-02-16T05:40:08;101427.94;;;-6.75;61.63
35694;BME280;21812;55.536;37.664;2024-02-16T05:42:46;101423.03;;;-6.87;61.68
35694;BME280;21812;55.536;37.664;2024-02-16T05:45:11;101429.94;;;-6.86;62.32
35694;BME280;21812;55.536;37.664;2024-02-16T05:47:37;101428.25;;;-6.87;62.00
35694;BME280;21812;55.536;37.664;2024-02-16T05:50:04;101437.72;;;-6.86;62.12
35694;BME280;21812;55.536;37.664;2024-02-16T05:52:30;101410.56;;;-7.09;62.52
35694;BME280;21812;55.536;37.664;2024-02-16T05:54:56;101452.38;;;-6.83;62.87
35694;BME280;21812;55.536;37.664;2024-02-16T05:57:21;101445.38;;;-6.80;62.19
35694;BME280;21812;55.536;37.664;2024-02-16T05:59:48;101451.47;;;-6.81;61.90
35694;BME280;21812;55.536;37.664;2024-02-16T06:02:14;101454.09;;;-6.82;62.41
35694;BME280;21812;55.536;37.664;2024-02-16T06:04:40;101467.91;;;-6.80;62.15
35694;BME280;21812;55.536;37.664;2024-02-16T06:07:06;101457.56;;;-6.83;62.33
35694;BME280;21812;55.536;37.664;2024-02-16T06:09:32;101454.75;;;-6.74;62.55
35694;BME280;21812;55.536;37.664;2024-02-16T06:12:04;101462.38;;;-6.66;62.16
35694;BME280;21812;55.536;37.664;2024-02-16T06:14:31;101376.13;;;-7.17;62.37
35694;BME280;21812;55.536;37.664;2024-02-16T06:16:57;101444.25;;;-6.68;61.89
35694;BME280;21812;55.536;37.664;2024-02-16T06:19:23;101460.47;;;-6.60;62.21
35694;BME280;21812;55.536;37.664;2024-02-16T06:21:48;101459.75;;;-6.66;62.12
35694;BME280;21812;55.536;37.664;2024-02-16T06:24:14;101454.69;;;-6.71;61.91
35694;BME280;21812;55.536;37.664;2024-02-16T06:26:39;101459.84;;;-6.70;62.38
35694;BME280;21812;55.536;37.664;2024-02-16T06:29:05;101464.06;;;-6.64;62.18
35694;BME280;21812;55.536;37.664;2024-02-16T06:31:30;101463.13;;;-6.61;62.33
35694;BME280;21812;55.536;37.664;2024-02-16T06:33:56;101465.72;;;-6.61;62.72
35694;BME280;21812;55.536;37.664;2024-02-16T06:36:22;101399.88;;;-6.96;62.59
35694;BME280;21812;55.536;37.664;2024-02-16T06:38:48;101463.06;;;-6.58;62.40
35694;BME280;21812;55.536;37.664;2024-02-16T06:41:14;101463.53;;;-6.44;62.64
35694;BME280;21812;55.536;37.664;2024-02-16T06:43:40;101473.06;;;-6.43;62.12
35694;BME280;21812;55.536;37.664;2024-02-16T06:46:05;101462.66;;;-6.43;62.50
35694;BME280;21812;55.536;37.664;2024-02-16T06:48:31;101459.09;;;-6.39;62.37
35694;BME280;21812;55.536;37.664;2024-02-16T06:50:56;101470.03;;;-6.26;62.95
35694;BME280;21812;55.536;37.664;2024-02-16T06:53:22;101427.88;;;-6.39;61.90
35694;BME280;21812;55.536;37.664;2024-02-16T06:55:48;101462.84;;;-6.16;61.86
35694;BME280;21812;55.536;37.664;2024-02-16T06:58:14;101437.31;;;-6.35;62.00
35694;BME280;21812;55.536;37.664;2024-02-16T07:00:39;101474.66;;;-6.04;62.04
35694;BME280;21812;55.536;37.664;2024-02-16T07:03:07;101468.16;;;-5.90;61.45
35694;BME280;21812;55.536;37.664;2024-02-16T07:05:34;101465.41;;;-5.85;61.64
35694;BME280;21812;55.536;37.664;2024-02-16T07:07:59;101463.50;;;-5.78;60.86
35694;BME280;21812;55.536;37.664;2024-02-16T07:10:25;101471.31;;;-5.78;60.87
35694;BME280;21812;55.536;37.664;2024-02-16T07:12:51;101460.09;;;-5.80;60.77
35694;BME280;21812;55.536;37.664;2024-02-16T07:15:16;101468.19;;;-5.30;63.05
35694;BME280;21812;55.536;37.664;2024-02-16T07:17:42;101460.72;;;-4.58;59.65
35694;BME280;21812;55.536;37.664;2024-02-16T07:20:08;101463.97;;;-3.76;57.87
35694;BME280;21812;55.536;37.664;2024-02-16T07:22:33;101456.88;;;-3.25;61.83
35694;BME280;21812;55.536;37.664;2024-02-16T07:24:59;101445.31;;;-2.53;58.15
35694;BME280;21812;55.536;37.664;2024-02-16T07:27:30;101444.94;;;-1.44;60.79
35694;BME280;21812;55.536;37.664;2024-02-16T07:29:56;101423.19;;;-1.27;51.28
35694;BME280;21812;55.536;37.664;2024-02-16T07:32:22;101448.84;;;-0.98;53.96
35694;BME280;21812;55.536;37.664;2024-02-16T07:34:47;101440.16;;;-0.81;51.50
35694;BME280;21812;55.536;37.664;2024-02-16T07:37:14;101439.81;;;-0.21;57.06
35694;BME280;21812;55.536;37.664;2024-02-16T07:39:41;101429.56;;;0.08;56.13
35694;BME280;21812;55.536;37.664;2024-02-16T07:42:06;101428.84;;;0.22;57.64
35694;BME280;21812;55.536;37.664;2024-02-16T07:44:35;101424.22;;;0.75;52.46
35694;BME280;21812;55.536;37.664;2024-02-16T07:47:02;101433.13;;;0.56;50.35
35694;BME280;21812;55.536;37.664;2024-02-16T07:49:27;101428.81;;;0.55;52.95
35694;BME280;21812;55.536;37.664;2024-02-16T07:51:53;101424.19;;;0.27;47.66
35694;BME280;21812;55.536;37.664;2024-02-16T07:54:18;101427.34;;;0.01;49.98
35694;BME280;21812;55.536;37.664;2024-02-16T07:56:44;101398.84;;;0.74;61.39
35694;BME280;21812;55.536;37.664;2024-02-16T07:59:10;101404.78;;;0.77;49.15
35694;BME280;21812;55.536;37.664;2024-02-16T08:01:36;101416.53;;;0.23;47.53
35694;BME280;21812;55.536;37.664;2024-02-16T08:04:01;101424.75;;;-0.17;49.25
35694;BME280;21812;55.536;37.664;2024-02-16T08:06:27;101414.19;;;0.34;52.42
35694;BME280;21812;55.536;37.664;2024-02-16T08:08:53;101434.25;;;-0.14;46.19
35694;BME280;21812;55.536;37.664;2024-02-16T08:11:19;101401.72;;;-1.54;47.51
35694;BME280;21812;55.536;37.664;2024-02-16T08:13:45;101430.53;;;-2.33;49.64
35694;BME280;21812;55.536;37.664;2024-02-16T08:16:12;101436.69;;;-2.99;51.80
35694;BME280;21812;55.536;37.664;2024-02-16T08:18:37;101461.09;;;-3.44;53.07
35694;BME280;21812;55.536;37.664;2024-02-16T08:21:03;101464.91;;;-3.77;53.92
35694;BME280;21812;55.536;37.664;2024-02-16T08:23:29;101466.84;;;-4.07;54.52
35694;BME280;21812;55.536;37.664;2024-02-16T08:25:55;101481.66;;;-4.34;55.39
35694;BME280;21812;55.536;37.664;2024-02-16T08:28:23;101473.03;;;-4.63;56.35
35694;BME280;21812;55.536;37.664;2024-02-16T08:30:48;101476.69;;;-4.68;56.67
35694;BME280;21812;55.536;37.664;2024-02-16T08:33:14;101476.91;;;-4.75;56.90
35694;BME280;21812;55.536;37.664;2024-02-16T08:35:40;101483.41;;;-4.88;57.55
35694;BME280;21812;55.536;37.664;2024-02-16T08:38:05;101494.84;;;-4.92;58.31
35694;BME280;21812;55.536;37.664;2024-02-16T08:40:36;101478.63;;;-5.02;58.22
35694;BME280;21812;55.536;37.664;2024-02-16T08:43:02;101496.47;;;-4.89;58.61
35694;BME280;21812;55.536;37.664;2024-02-16T08:45:28;101498.81;;;-4.80;58.67
35694;BME280;21812;55.536;37.664;2024-02-16T08:47:54;101499.28;;;-4.67;58.57
35694;BME280;21812;55.536;37.664;2024-02-16T08:50:19;101494.06;;;-4.67;58.38
35694;BME280;21812;55.536;37.664;2024-02-16T08:52:45;101484.88;;;-4.79;58.05
35694;BME280;21812;55.536;37.664;2024-02-16T08:55:10;101498.84;;;-4.82;58.73
35694;BME280;21812;55.536;37.664;2024-02-16T08:57:36;101485.09;;;-4.85;59.21
35694;BME280;21812;55.536;37.664;2024-02-16T09:00:02;101468.56;;;-4.86;58.84
35694;BME280;21812;55.536;37.664;2024-02-16T09:02:29;101474.06;;;-4.95;58.86
35694;BME280;21812;55.536;37.664;2024-02-16T09:04:54;101487.97;;;-4.95;59.26
35694;BME280;21812;55.536;37.664;2024-02-16T09:07:20;101494.19;;;-4.99;59.76
35694;BME280;21812;55.536;37.664;2024-02-16T09:09:45;101489.91;;;-5.01;60.30
35694;BME280;21812;55.536;37.664;2024-02-16T09:12:11;101493.22;;;-4.96;60.08
35694;BME280;21812;55.536;37.664;2024-02-16T09:14:37;101465.66;;;-5.03;60.34
35694;BME280;21812;55.536;37.664;2024-02-16T09:17:02;101434.88;;;-5.19;60.74
35694;BME280;21812;55.536;37.664;2024-02-16T09:19:28;101479.28;;;-4.95;60.54
35694;BME280;21812;55.536;37.664;2024-02-16T09:21:54;101463.97;;;-5.04;60.38
35694;BME280;21812;55.536;37.664;2024-02-16T09:24:20;101480.25;;;-4.98;60.81
35694;BME280;21812;55.536;37.664;2024-02-16T09:26:46;101473.38;;;-5.00;60.65
35694;BME280;21812;55.536;37.664;2024-02-16T09:29:14;101474.75;;;-4.88;60.97
35694;BME280;21812;55.536;37.664;2024-02-16T09:31:42;101478.25;;;-4.89;60.77
35694;BME280;21812;55.536;37.664;2024-02-16T09:34:08;101471.38;;;-4.92;61.15
35694;BME280;21812;55.536;37.664;2024-02-16T09:36:34;101473.22;;;-4.96;61.16
35694;BME280;21812;55.536;37.664;2024-02-16T09:39:02;101481.97;;;-4.97;61.16
35694;BME280;21812;55.536;37.664;2024-02-16T09:41:28;101438.19;;;-5.14;61.32
35694;BME280;21812;55.536;37.664;2024-02-16T09:43:54;101468.56;;;-4.86;60.61
35694;BME280;21812;55.536;37.664;2024-02-16T09:46:21;101470.97;;;-4.80;60.75
35694;BME280;21812;55.536;37.664;2024-02-16T09:48:47;101475.22;;;-4.76;60.41
35694;BME280;21812;55.536;37.664;2024-02-16T09:51:17;101471.59;;;-4.72;60.53
35694;BME280;21812;55.536;37.664;2024-02-16T09:53:50;101454.25;;;-4.73;60.16
35694;BME280;21812;55.536;37.664;2024-02-16T09:56:17;101450.84;;;-4.75;60.57
35694;BME280;21812;55.536;37.664;2024-02-16T09:58:43;101436.25;;;-4.80;60.33
35694;BME280;21812;55.536;37.664;2024-02-16T10:01:18;101437.00;;;-4.77;60.70
35694;BME280;21812;55.536;37.664;2024-02-16T10:03:44;101434.41;;;-4.77;60.11
35694;BME280;21812;55.536;37.664;2024-02-16T10:06:11;101420.16;;;-4.93;60.12
35694;BME280;21812;55.536;37.664;2024-02-16T10:08:51;101437.97;;;-4.79;61.08
35694;BME280;21812;55.536;37.664;2024-02-16T10:11:18;101433.59;;;-4.79;60.79
35694;BME280;21812;55.536;37.664;2024-02-16T10:13:57;101419.06;;;-4.86;60.37
35694;BME280;21812;55.536;37.664;2024-02-16T10:16:23;101414.91;;;-4.92;61.21
35694;BME280;21812;55.536;37.664;2024-02-16T10:18:49;101429.28;;;-4.80;60.78
35694;BME280;21812;55.536;37.664;2024-02-16T10:21:24;101367.56;;;-5.04;61.15
35694;BME280;21812;55.536;37.664;2024-02-16T10:23:59;101422.38;;;-4.54;60.94
35694;BME280;21812;55.536;37.664;2024-02-16T10:26:25;101428.69;;;-4.61;60.29
35694;BME280;21812;55.536;37.664;2024-02-16T10:28:54;101366.09;;;-4.86;60.28
35694;BME280;21812;55.536;37.664;2024-02-16T10:31:23;101393.41;;;-4.72;60.50
35694;BME280;21812;55.536;37.664;2024-02-16T10:33:58;101373.06;;;-4.87;60.59
35694;BME280;21812;55.536;37.664;2024-02-16T10:36:25;101404.50;;;-4.66;60.72
35694;BME280;21812;55.536;37.664;2024-02-16T10:38:54;101418.25;;;-4.61;60.40
35694;BME280;21812;55.536;37.664;2024-02-16T10:41:27;101422.63;;;-4.62;60.84
35694;BME280;21812;55.536;37.664;2024-02-16T10:43:54;101416.56;;;-4.62;61.14
35694;BME280;21812;55.536;37.664;2024-02-16T10:46:20;101413.00;;;-4.60;61.14
35694;BME280;21812;55.536;37.664;2024-02-16T10:48:47;101420.66;;;-4.55;60.89
35694;BME280;21812;55.536;37.664;2024-02-16T10:51:15;101339.09;;;-5.11;60.67
35694;BME280;21812;55.536;37.664;2024-02-16T10:53:45;101427.66;;;-4.57;60.67
35694;BME280;21812;55.536;37.664;2024-02-16T10:56:13;101418.97;;;-4.56;60.98
35694;BME280;21812;55.536;37.664;2024-02-16T10:58:39;101426.31;;;-4.42;61.15
35694;BME280;21812;55.536;37.664;2024-02-16T11:01:09;101405.22;;;-4.36;60.81
35694;BME280;21812;55.536;37.664;2024-02-16T11:03:38;101424.94;;;-4.27;59.87
35694;BME280;21812;55.536;37.664;2024-02-16T11:06:16;101425.16;;;-4.34;60.16
35694;BME280;21812;55.536;37.664;2024-02-16T11:08:42;101414.84;;;-4.38;60.67
35694;BME280;21812;55.536;37.664;2024-02-16T11:11:08;101406.63;;;-4.51;60.41
35694;BME280;21812;55.536;37.664;2024-02-16T11:13:37;101428.34;;;-4.50;60.63
35694;BME280;21812;55.536;37.664;2024-02-16T11:16:06;101428.88;;;-4.41;60.43
35694;BME280;21812;55.536;37.664;2024-02-16T11:18:37;101380.06;;;-4.62;60.20
35694;BME280;21812;55.536;37.664;2024-02-16T11:21:03;101426.53;;;-4.23;60.15
35694;BME280;21812;55.536;37.664;2024-02-16T11:23:30;101422.16;;;-4.23;59.76
35694;BME280;21812;55.536;37.664;2024-02-16T11:26:08;101433.13;;;-4.13;60.12
35694;BME280;21812;55.536;37.664;2024-02-16T11:28:37;101437.59;;;-4.17;59.88
35694;BME280;21812;55.536;37.664;2024-02-16T11:31:03;101429.59;;;-4.12;59.77
35694;BME280;21812;55.536;37.664;2024-02-16T11:33:30;101416.59;;;-4.14;58.84
35694;BME280;21812;55.536;37.664;2024-02-16T11:35:57;101424.97;;;-4.04;58.94
35694;BME280;21812;55.536;37.664;2024-02-16T11:38:24;101412.00;;;-4.05;59.25
35694;BME280;21812;55.536;37.664;2024-02-16T11:40:57;101423.31;;;-4.06;58.80
35694;BME280;21812;55.536;37.664;2024-02-16T11:43:24;101420.47;;;-4.00;59.05
35694;BME280;21812;55.536;37.664;2024-02-16T11:45:50;101417.59;;;-4.16;59.08
35694;BME280;21812;55.536;37.664;2024-02-16T11:48:23;101424.66;;;-4.20;59.67
35694;BME280;21812;55.536;37.664;2024-02-16T11:50:58;101416.88;;;-4.21;59.32
35694;BME280;21812;55.536;37.664;2024-02-16T11:53:24;101409.81;;;-4.43;58.97
35694;BME280;21812;55.536;37.664;2024-02-16T11:55:49;101414.97;;;-4.41;59.00
35694;BME280;21812;55.536;37.664;2024-02-16T11:58:19;101366.31;;;-4.67;59.48
35694;BME280;21812;55.536;37.664;2024-02-16T12:00:46;101397.78;;;-4.47;59.46
35694;BME280;21812;55.536;37.664;2024-02-16T12:03:25;101352.19;;;-4.60;59.85
35694;BME280;21812;55.536;37.664;2024-02-16T12:05:58;101397.13;;;-4.28;59.67
35694;BME280;21812;55.536;37.664;2024-02-16T12:08:31;101355.09;;;-4.44;59.12
35694;BME280;21812;55.536;37.664;2024-02-16T12:10:58;101404.63;;;-4.19;59.07
35694;BME280;21812;55.536;37.664;2024-02-16T12:13:23;101396.81;;;-4.19;59.12
35694;BME280;21812;55.536;37.664;2024-02-16T12:16:07;101406.41;;;-4.20;59.15
35694;BME280;21812;55.536;37.664;2024-02-16T12:18:33;101405.44;;;-4.17;59.26
35694;BME280;21812;55.536;37.664;2024-02-16T12:21:03;101364.47;;;-4.39;58.94
35694;BME280;21812;55.536;37.664;2024-02-16T12:23:33;101406.69;;;-4.04;58.99
35694;BME280;21812;55.536;37.664;2024-02-16T12:26:02;101395.44;;;-4.29;59.30
35694;BME280;21812;55.536;37.664;2024-02-16T12:28:30;101320.72;;;-4.81;59.46
35694;BME280;21812;55.536;37.664;2024-02-16T12:30:59;101414.50;;;-4.27;59.24
35694;BME280;21812;55.536;37.664;2024-02-16T12:33:25;101419.81;;;-4.30;59.06
35694;BME280;21812;55.536;37.664;2024-02-16T12:35:51;101430.38;;;-4.34;58.93
35694;BME280;21812;55.536;37.664;2024-02-16T12:38:17;101417.31;;;-4.34;59.22
35694;BME280;21812;55.536;37.664;2024-02-16T12:40:48;101431.75;;;-4.23;59.50